Time;durP1;ratioP1;P1;durP2;ratioP2;P2;SDS_P1;SDS_P2;PMS_P1;PMS_P2;Temp;Humidity;BMP_temperature;BMP_pressure;BME280_temperature;BME280_humidity;BME280_pressure;Samples;Min_cycle;Max_cycle;Signal;HPM_P1;HPM_P2
2021/12/08 00:01:28;;;;;;;16.30;10.53;;;0.80;99.90;;;;;;5071910;28;20212;-58
2021/12/08 00:03:55;;;;;;;15.23;10.23;;;0.80;99.90;;;;;;5072141;28;20209;-58
2021/12/08 00:06:22;;;;;;;17.10;11.27;;;0.70;99.90;;;;;;5072014;28;20197;-58
2021/12/08 00:09:03;;;;;;;15.13;10.87;;;0.70;99.90;;;;;;5072330;28;20211;-57
2021/12/08 00:14:15;;;;;;;15.97;10.83;;;0.70;99.90;;;;;;5071887;28;20687;-59
2021/12/08 00:16:42;;;;;;;17.57;10.53;;;0.70;99.90;;;;;;5072212;28;20603;-57
2021/12/08 00:19:09;;;;;;;15.40;10.20;;;0.70;99.90;;;;;;5072080;28;20563;-55
2021/12/08 00:21:36;;;;;;;14.10;9.93;;;0.70;99.90;;;;;;5072220;28;20201;-55
2021/12/08 00:24:04;;;;;;;16.33;10.47;;;0.70;99.90;;;;;;5072215;28;20205;-55
2021/12/08 00:26:31;;;;;;;15.27;10.23;;;0.70;99.90;;;;;;5071967;28;20201;-57
2021/12/08 00:28:58;;;;;;;17.23;10.47;;;0.70;99.90;;;;;;5071590;28;20254;-59
2021/12/08 00:31:25;;;;;;;15.53;10.33;;;0.70;99.90;;;;;;5071705;28;20494;-57
2021/12/08 00:33:52;;;;;;;13.50;9.37;;;0.70;99.90;;;;;;5071675;28;20213;-57
2021/12/08 00:36:25;;;;;;;16.03;10.43;;;0.70;99.90;;;;;;5071701;28;20201;-55
2021/12/08 00:38:52;;;;;;;15.63;9.97;;;0.70;99.90;;;;;;5072030;28;20189;-55
2021/12/08 00:41:20;;;;;;;15.70;10.33;;;0.70;99.90;;;;;;5071354;28;20208;-56
2021/12/08 00:43:47;;;;;;;17.30;9.90;;;0.70;99.90;;;;;;5071547;28;20576;-57
2021/12/08 00:46:14;;;;;;;15.33;9.90;;;0.70;99.90;;;;;;5071757;28;20653;-58
2021/12/08 00:48:47;;;;;;;14.37;9.97;;;0.80;99.90;;;;;;5072275;28;20224;-56
2021/12/08 00:51:14;;;;;;;16.20;9.77;;;0.80;99.90;;;;;;5071345;28;20293;-56
2021/12/08 00:53:41;;;;;;;16.77;10.13;;;0.80;99.90;;;;;;5071636;28;20215;-57
2021/12/08 00:56:08;;;;;;;15.23;9.90;;;0.80;99.90;;;;;;5071384;28;20214;-58
2021/12/08 00:58:36;;;;;;;20.30;12.13;;;0.80;99.90;;;;;;5071921;28;20208;-58
2021/12/08 01:01:04;;;;;;;18.67;11.70;;;0.80;99.90;;;;;;5071670;28;20204;-56
2021/12/08 01:03:31;;;;;;;16.07;10.20;;;0.80;99.90;;;;;;5071616;28;20556;-58
2021/12/08 01:05:58;;;;;;;17.37;10.97;;;0.80;99.90;;;;;;5071721;28;20688;-59
2021/12/08 01:08:27;;;;;;;15.90;10.70;;;0.80;99.90;;;;;;5073881;28;20375;-57
2021/12/08 01:10:59;;;;;;;17.57;10.37;;;0.80;99.90;;;;;;5075728;28;20211;-55
2021/12/08 01:13:27;;;;;;;17.20;10.57;;;0.80;99.90;;;;;;5075665;28;20212;-59
2021/12/08 01:15:58;;;;;;;20.90;12.60;;;0.80;99.90;;;;;;5075864;28;20215;-56
2021/12/08 01:18:27;;;;;;;17.20;10.87;;;0.70;99.90;;;;;;5075425;28;20570;-56
2021/12/08 01:20:57;;;;;;;22.57;14.17;;;0.70;99.90;;;;;;5075599;28;20679;-55
2021/12/08 01:23:24;;;;;;;21.53;12.37;;;0.70;99.90;;;;;;5075572;28;20621;-58
2021/12/08 01:25:51;;;;;;;23.50;13.83;;;0.70;99.90;;;;;;5075451;28;20219;-55
2021/12/08 01:28:20;;;;;;;20.23;11.90;;;0.70;99.90;;;;;;5075435;28;20204;-55
2021/12/08 01:30:48;;;;;;;26.57;13.97;;;0.70;99.90;;;;;;5074761;28;20207;-57
2021/12/08 01:33:17;;;;;;;23.80;13.20;;;0.70;99.90;;;;;;5075100;28;20212;-58
2021/12/08 01:35:44;;;;;;;22.57;12.57;;;0.80;99.90;;;;;;5075129;28;20534;-58
2021/12/08 01:38:12;;;;;;;22.30;13.13;;;0.80;99.90;;;;;;5074594;28;20225;-58
2021/12/08 01:40:39;;;;;;;20.30;12.43;;;0.80;99.90;;;;;;5075075;28;20216;-58
2021/12/08 01:43:12;;;;;;;21.67;13.60;;;0.80;99.90;;;;;;5074932;28;20197;-58
2021/12/08 01:45:58;;;;;;;18.10;11.47;;;0.80;99.90;;;;;;5075094;28;20575;-55
2021/12/08 01:48:26;;;;;;;21.17;13.30;;;0.70;99.90;;;;;;5075139;28;20220;-56
2021/12/08 01:50:56;;;;;;;21.90;13.03;;;0.70;99.90;;;;;;5074780;28;20236;-58
2021/12/08 01:53:24;;;;;;;21.87;13.10;;;0.70;99.90;;;;;;5074863;28;20211;-57
2021/12/08 01:55:51;;;;;;;22.03;12.57;;;0.70;99.90;;;;;;5075029;28;20227;-54
2021/12/08 01:58:19;;;;;;;23.97;13.17;;;0.60;99.90;;;;;;5074495;28;20739;-59
2021/12/08 02:00:48;;;;;;;22.03;12.87;;;0.70;99.90;;;;;;5074926;28;20261;-55
2021/12/08 02:03:16;;;;;;;23.53;13.67;;;0.60;99.90;;;;;;5074798;28;20326;-56
2021/12/08 02:05:45;;;;;;;19.80;11.90;;;0.60;99.90;;;;;;5074634;28;20208;-58
2021/12/08 02:08:12;;;;;;;21.13;12.90;;;0.60;99.90;;;;;;5074688;28;20205;-58
2021/12/08 02:10:40;;;;;;;22.57;13.40;;;0.70;99.90;;;;;;5074359;28;20209;-56
2021/12/08 02:13:07;;;;;;;23.27;13.57;;;0.60;99.90;;;;;;5074352;28;20288;-58
2021/12/08 02:15:36;;;;;;;22.33;13.33;;;0.60;99.90;;;;;;5074613;28;20247;-59
2021/12/08 02:18:05;;;;;;;27.73;14.87;;;0.60;99.90;;;;;;5073631;28;20213;-58
2021/12/08 02:20:32;;;;;;;20.53;12.97;;;0.70;99.90;;;;;;5073562;28;20201;-55
2021/12/08 02:23:00;;;;;;;23.77;13.67;;;0.60;99.90;;;;;;5074353;28;20571;-57
2021/12/08 02:25:27;;;;;;;23.40;13.13;;;0.60;99.90;;;;;;5074444;28;20684;-56
2021/12/08 02:27:58;;;;;;;22.23;13.20;;;0.60;99.90;;;;;;5074070;28;20197;-56
2021/12/08 02:30:32;;;;;;;23.87;13.83;;;0.60;99.90;;;;;;5074344;28;20205;-55
2021/12/08 02:47:03;;;;;;;27.07;14.57;;;0.60;99.90;;;;;;5073776;28;20230;-56
2021/12/08 02:49:31;;;;;;;24.73;13.60;;;0.60;99.90;;;;;;5073792;28;20283;-56
2021/12/08 02:51:58;;;;;;;27.33;14.40;;;0.60;99.90;;;;;;5073477;28;20236;-56
2021/12/08 02:54:33;;;;;;;27.70;14.43;;;0.60;99.90;;;;;;5073984;28;20205;-56
2021/12/08 02:56:59;;;;;;;27.80;15.73;;;0.60;99.90;;;;;;5073758;28;20199;-55
2021/12/08 02:59:26;;;;;;;27.90;15.10;;;0.60;99.90;;;;;;5073462;28;20197;-55
2021/12/08 03:01:53;;;;;;;24.27;13.53;;;0.60;99.90;;;;;;5073732;28;20565;-58
2021/12/08 03:04:20;;;;;;;24.20;14.20;;;0.60;99.90;;;;;;5073915;28;20200;-55
2021/12/08 03:06:47;;;;;;;32.70;15.90;;;0.60;99.90;;;;;;5073539;28;20563;-57
2021/12/08 03:09:14;;;;;;;29.60;14.63;;;0.60;99.90;;;;;;5073423;28;20201;-57
2021/12/08 03:11:42;;;;;;;28.60;13.83;;;0.60;99.90;;;;;;5073141;28;20197;-57
2021/12/08 03:14:11;;;;;;;26.87;13.70;;;0.60;99.90;;;;;;5073179;28;20216;-56
2021/12/08 03:16:44;;;;;;;26.60;13.80;;;0.60;99.90;;;;;;5073547;28;20201;-58
2021/12/08 03:19:11;;;;;;;26.80;13.63;;;0.60;99.90;;;;;;5072878;28;20212;-56
2021/12/08 03:21:38;;;;;;;24.33;13.37;;;0.60;99.90;;;;;;5073261;28;20211;-57
2021/12/08 03:24:11;;;;;;;27.67;14.63;;;0.60;99.90;;;;;;5073258;28;20215;-57
2021/12/08 03:26:46;;;;;;;24.70;13.70;;;0.60;99.90;;;;;;5073082;28;20189;-55
2021/12/08 03:29:22;;;;;;;26.90;14.13;;;0.50;99.90;;;;;;5073087;28;20192;-58
2021/12/08 03:31:52;;;;;;;26.90;14.03;;;0.50;99.90;;;;;;5071872;28;20239;-54
2021/12/08 03:34:20;;;;;;;27.93;14.67;;;0.50;99.90;;;;;;5072769;28;20228;-57
2021/12/08 03:36:48;;;;;;;28.23;14.53;;;0.50;99.90;;;;;;5072785;28;20559;-58
2021/12/08 03:39:15;;;;;;;29.53;15.17;;;0.60;99.90;;;;;;5072761;28;20224;-58
2021/12/08 03:41:42;;;;;;;27.23;15.00;;;0.50;99.90;;;;;;5072373;28;20216;-56
2021/12/08 03:44:09;;;;;;;33.23;15.90;;;0.60;99.90;;;;;;5072808;28;20236;-57
2021/12/08 03:46:41;;;;;;;32.83;15.87;;;0.60;99.90;;;;;;5072271;28;20649;-56
2021/12/08 03:49:11;;;;;;;28.87;14.77;;;0.50;99.90;;;;;;5072370;28;20221;-56
2021/12/08 03:51:39;;;;;;;32.07;16.47;;;0.60;99.90;;;;;;5072535;28;20240;-58
2021/12/08 03:54:06;;;;;;;37.97;18.00;;;0.50;99.90;;;;;;5072626;28;20208;-57
2021/12/08 03:56:33;;;;;;;31.77;15.67;;;0.50;99.90;;;;;;5071789;28;20208;-59
2021/12/08 03:59:00;;;;;;;33.87;15.73;;;0.50;99.90;;;;;;5072105;28;20229;-57
2021/12/08 04:01:27;;;;;;;29.77;15.43;;;0.50;99.90;;;;;;5068355;28;20197;-58
2021/12/08 04:04:01;;;;;;;29.97;15.27;;;0.50;99.90;;;;;;5072134;28;20200;-58
2021/12/08 04:06:31;;;;;;;32.63;15.37;;;0.50;99.90;;;;;;5071990;28;20193;-59
2021/12/08 04:09:01;;;;;;;33.50;16.40;;;0.50;99.90;;;;;;5072049;28;20228;-59
2021/12/08 04:11:28;;;;;;;30.90;16.17;;;0.50;99.90;;;;;;5072046;28;20208;-58
2021/12/08 04:14:01;;;;;;;34.07;16.77;;;0.50;99.90;;;;;;5071989;28;20288;-58
2021/12/08 04:16:33;;;;;;;29.00;14.93;;;0.50;99.90;;;;;;5072076;28;20196;-59
2021/12/08 04:19:03;;;;;;;35.73;18.37;;;0.50;99.90;;;;;;5071638;28;20208;-58
2021/12/08 04:21:32;;;;;;;31.63;16.33;;;0.50;99.90;;;;;;5072210;28;20665;-58
2021/12/08 04:23:59;;;;;;;35.83;17.23;;;0.50;99.90;;;;;;5071510;28;20212;-57
2021/12/08 04:26:29;;;;;;;34.03;17.20;;;0.50;99.90;;;;;;5071727;28;20212;-57
2021/12/08 04:28:57;;;;;;;36.37;16.90;;;0.50;99.90;;;;;;5071576;28;20197;-57
2021/12/08 04:31:27;;;;;;;34.20;17.27;;;0.50;99.90;;;;;;5071889;28;20672;-59
2021/12/08 04:33:59;;;;;;;30.50;15.57;;;0.50;99.90;;;;;;5072104;28;20663;-57
2021/12/08 04:36:31;;;;;;;36.40;18.43;;;0.50;99.90;;;;;;5071559;28;20193;-57
2021/12/08 04:39:02;;;;;;;36.00;17.70;;;0.50;99.90;;;;;;5071769;28;20223;-56
2021/12/08 04:41:35;;;;;;;36.73;18.50;;;0.50;99.90;;;;;;5071884;28;20761;-58
2021/12/08 04:44:18;;;;;;;33.70;16.87;;;0.50;99.90;;;;;;5071217;28;20227;-58
2021/12/08 04:47:01;;;;;;;31.77;15.97;;;0.50;99.90;;;;;;5071326;28;20253;-55
2021/12/08 04:50:03;;;;;;;35.17;15.97;;;0.50;99.90;;;;;;5071857;28;20187;-58
2021/12/08 04:52:36;;;;;;;32.87;16.03;;;0.50;99.90;;;;;;5071491;28;20201;-58
2021/12/08 05:00:59;;;;;;;30.80;15.97;;;0.50;99.90;;;;;;5071158;28;20285;-59
2021/12/08 05:03:46;;;;;;;32.67;17.67;;;0.50;99.90;;;;;;5071661;28;20648;-59
2021/12/08 05:06:23;;;;;;;30.47;15.53;;;0.50;99.90;;;;;;5071745;28;20250;-58
2021/12/08 05:08:54;;;;;;;27.97;14.20;;;0.50;99.90;;;;;;5071603;28;20351;-54
2021/12/08 05:11:23;;;;;;;28.63;14.23;;;0.50;99.90;;;;;;5071426;28;20192;-57
2021/12/08 05:13:53;;;;;;;29.77;14.53;;;0.50;99.90;;;;;;5071182;28;20211;-57
2021/12/08 05:16:21;;;;;;;29.60;14.97;;;0.50;99.90;;;;;;5071707;28;20691;-58
2021/12/08 05:18:52;;;;;;;31.50;15.03;;;0.60;99.90;;;;;;5071123;28;20666;-60
2021/12/08 05:21:24;;;;;;;33.60;15.07;;;0.50;99.90;;;;;;5071760;28;20679;-58
2021/12/08 05:23:58;;;;;;;27.07;13.73;;;0.50;99.90;;;;;;5071311;28;20196;-57
2021/12/08 05:26:32;;;;;;;27.30;14.37;;;0.50;99.90;;;;;;5071562;28;20553;-58
2021/12/08 05:29:06;;;;;;;26.13;14.27;;;0.50;99.90;;;;;;5071689;28;20185;-56
2021/12/08 05:31:34;;;;;;;27.40;14.57;;;0.50;99.90;;;;;;5071435;28;20200;-58
2021/12/08 05:34:02;;;;;;;24.00;13.47;;;0.50;99.90;;;;;;5071617;28;20462;-58
2021/12/08 05:36:28;;;;;;;23.83;12.67;;;0.60;99.90;;;;;;5074302;28;20207;-56
2021/12/08 05:39:00;;;;;;;22.50;12.60;;;0.60;99.90;;;;;;5071979;28;20248;-59
2021/12/08 05:41:29;;;;;;;26.50;14.80;;;0.60;99.90;;;;;;5073695;28;20200;-59
2021/12/08 05:43:57;;;;;;;25.20;13.67;;;0.60;99.90;;;;;;5071414;28;20205;-57
2021/12/08 05:46:27;;;;;;;27.47;13.53;;;0.60;99.90;;;;;;5071332;28;20208;-58
2021/12/08 05:48:54;;;;;;;26.57;14.93;;;0.60;99.90;;;;;;5070892;28;20719;-58
2021/12/08 05:51:23;;;;;;;21.20;12.37;;;0.70;99.90;;;;;;5070843;28;20247;-59
2021/12/08 05:53:56;;;;;;;20.73;11.57;;;0.60;99.90;;;;;;5071125;28;20209;-58
2021/12/08 05:56:24;;;;;;;24.73;12.67;;;0.60;99.90;;;;;;5074828;28;20200;-57
2021/12/08 05:58:53;;;;;;;22.87;13.30;;;0.60;99.90;;;;;;5074687;28;20228;-60
2021/12/08 06:01:25;;;;;;;21.63;11.73;;;0.60;99.90;;;;;;5074293;28;20223;-60
2021/12/08 06:03:52;;;;;;;20.97;11.10;;;0.60;99.90;;;;;;5074794;28;20212;-59
2021/12/08 06:06:22;;;;;;;20.13;12.10;;;0.60;99.90;;;;;;5074919;28;20223;-58
2021/12/08 06:08:49;;;;;;;21.57;12.07;;;0.70;99.90;;;;;;5074584;28;20201;-59
2021/12/08 06:11:17;;;;;;;23.27;11.67;;;0.70;99.90;;;;;;5074736;28;20205;-58
2021/12/08 06:13:46;;;;;;;22.43;11.30;;;0.70;99.90;;;;;;5074336;28;20212;-59
2021/12/08 06:16:15;;;;;;;20.57;10.63;;;0.70;99.90;;;;;;5074494;28;20235;-56
2021/12/08 06:18:42;;;;;;;18.80;11.10;;;0.70;99.90;;;;;;5074405;28;20224;-58
2021/12/08 06:21:13;;;;;;;18.30;10.67;;;0.70;99.90;;;;;;5074112;28;20201;-58
2021/12/08 06:23:42;;;;;;;20.40;10.50;;;0.70;99.90;;;;;;5074484;28;20201;-58
2021/12/08 06:26:10;;;;;;;19.80;11.70;;;0.70;99.90;;;;;;5074640;28;20683;-58
2021/12/08 06:28:37;;;;;;;21.40;12.40;;;0.70;99.90;;;;;;5074330;28;20351;-58
2021/12/08 06:31:07;;;;;;;19.33;11.00;;;0.70;99.90;;;;;;5075572;28;20201;-57
2021/12/08 06:33:34;;;;;;;19.27;11.03;;;0.80;99.90;;;;;;5074378;28;20201;-60
2021/12/08 06:36:07;;;;;;;19.37;11.20;;;0.80;99.90;;;;;;5074369;28;20665;-57
2021/12/08 06:38:34;;;;;;;20.40;11.43;;;0.80;99.90;;;;;;5074206;28;20565;-60
2021/12/08 06:41:05;;;;;;;20.73;11.37;;;0.70;99.90;;;;;;5091927;28;20205;-57
2021/12/08 06:43:36;;;;;;;19.77;11.30;;;0.70;99.90;;;;;;5094230;28;20189;-58
2021/12/08 06:46:03;;;;;;;18.67;10.63;;;0.80;99.90;;;;;;5094467;28;20188;-58
2021/12/08 06:48:34;;;;;;;19.43;10.80;;;0.80;99.90;;;;;;5084873;28;20227;-57
2021/12/08 06:51:05;;;;;;;15.63;9.73;;;0.80;99.90;;;;;;5073696;28;20236;-58
2021/12/08 06:53:32;;;;;;;16.80;9.63;;;0.80;99.90;;;;;;5073545;28;20193;-59
2021/12/08 06:56:02;;;;;;;16.53;10.50;;;0.80;99.90;;;;;;5076068;28;20204;-58
2021/12/08 06:58:34;;;;;;;21.40;10.93;;;0.80;99.90;;;;;;5093606;28;20231;-56
2021/12/08 07:01:14;;;;;;;18.20;10.87;;;0.80;99.90;;;;;;5093849;28;20188;-57
2021/12/08 07:03:50;;;;;;;18.17;9.37;;;0.80;99.90;;;;;;5076204;28;20818;-56
2021/12/08 07:06:41;;;;;;;18.27;9.83;;;0.80;99.90;;;;;;5073438;28;20234;-57
2021/12/08 07:09:12;;;;;;;19.30;9.70;;;0.80;99.90;;;;;;5073607;28;20224;-56
2021/12/08 07:11:40;;;;;;;15.20;8.47;;;0.80;99.90;;;;;;5079072;28;20203;-57
2021/12/08 07:14:07;;;;;;;14.10;8.67;;;0.80;99.90;;;;;;5053742;28;20210;-54
2021/12/08 07:16:39;;;;;;;12.80;8.07;;;0.80;99.90;;;;;;5074352;28;20288;-55
2021/12/08 07:19:13;;;;;;;14.63;7.90;;;0.80;99.90;;;;;;5073414;28;20592;-59
2021/12/08 07:21:43;;;;;;;15.70;9.00;;;0.70;99.90;;;;;;5072992;28;20715;-57
2021/12/08 07:24:16;;;;;;;17.00;9.20;;;0.80;99.90;;;;;;5073642;28;20204;-56
2021/12/08 07:26:49;;;;;;;15.60;9.00;;;0.80;99.90;;;;;;5074217;28;20204;-57
2021/12/08 07:29:20;;;;;;;12.93;8.00;;;0.80;99.90;;;;;;5072827;28;20189;-54
2021/12/08 07:31:52;;;;;;;15.33;8.60;;;0.80;99.90;;;;;;5073018;28;20193;-57
2021/12/08 07:34:21;;;;;;;13.93;8.20;;;0.80;99.90;;;;;;5072867;28;20188;-58
2021/12/08 07:36:51;;;;;;;14.13;7.87;;;0.80;99.90;;;;;;5073252;28;20204;-58
2021/12/08 07:39:21;;;;;;;11.97;7.13;;;0.80;99.90;;;;;;5072763;28;20213;-59
2021/12/08 07:41:52;;;;;;;12.53;7.67;;;0.80;99.90;;;;;;5076008;28;20188;-59
2021/12/08 07:44:21;;;;;;;14.93;7.93;;;0.70;99.90;;;;;;5092792;28;20697;-58
2021/12/08 07:46:51;;;;;;;14.93;8.10;;;0.70;99.90;;;;;;5092971;28;20224;-57
2021/12/08 07:49:24;;;;;;;14.97;7.87;;;0.70;99.90;;;;;;5093080;28;20199;-59
2021/12/08 07:51:53;;;;;;;13.97;7.77;;;0.70;99.90;;;;;;5092743;28;20243;-57
2021/12/08 07:54:22;;;;;;;13.73;8.50;;;0.80;99.90;;;;;;5092932;28;20208;-57
2021/12/08 07:56:55;;;;;;;12.13;7.03;;;0.80;99.90;;;;;;5093021;28;20200;-56
2021/12/08 07:59:24;;;;;;;12.00;7.50;;;0.80;99.90;;;;;;5092544;28;20208;-56
2021/12/08 08:01:53;;;;;;;12.80;7.53;;;0.80;99.90;;;;;;5075499;28;20650;-57
2021/12/08 08:04:25;;;;;;;13.33;7.77;;;0.80;99.90;;;;;;5072133;28;20543;-59
2021/12/08 08:06:55;;;;;;;14.67;8.00;;;0.80;99.90;;;;;;5072621;28;20197;-55
2021/12/08 08:09:25;;;;;;;11.80;7.07;;;0.80;99.90;;;;;;5091405;28;20200;-59
2021/12/08 08:11:56;;;;;;;11.70;6.90;;;0.80;99.90;;;;;;5092893;28;20652;-57
2021/12/08 08:14:28;;;;;;;10.60;7.00;;;0.80;99.90;;;;;;5092686;28;20442;-58
2021/12/08 08:16:57;;;;;;;12.40;7.27;;;0.80;99.90;;;;;;5091895;28;20188;-59
2021/12/08 08:19:29;;;;;;;13.03;7.57;;;0.80;99.90;;;;;;5092478;28;20235;-57
2021/12/08 08:22:01;;;;;;;10.77;7.07;;;0.80;99.90;;;;;;5092333;28;20192;-59
2021/12/08 08:24:28;;;;;;;13.43;6.20;;;0.80;99.90;;;;;;5090413;28;20199;-58
2021/12/08 08:26:59;;;;;;;12.10;6.80;;;0.80;99.90;;;;;;5092558;28;20200;-57
2021/12/08 08:29:26;;;;;;;13.40;7.30;;;0.80;99.90;;;;;;5091954;28;20180;-58
2021/12/08 08:31:59;;;;;;;14.47;7.57;;;0.80;99.90;;;;;;5092443;28;20206;-58
2021/12/08 08:34:30;;;;;;;11.07;6.83;;;0.80;99.90;;;;;;5086484;28;20189;-57
2021/12/08 08:36:57;;;;;;;10.93;6.37;;;0.80;99.90;;;;;;5084264;28;20193;-58
2021/12/08 08:39:26;;;;;;;12.67;7.20;;;0.80;99.90;;;;;;5091685;28;20234;-56
2021/12/08 08:41:59;;;;;;;12.10;6.73;;;0.80;99.90;;;;;;5092305;28;20204;-58
2021/12/08 08:44:28;;;;;;;15.80;7.60;;;0.70;99.90;;;;;;5092183;28;20189;-57
2021/12/08 08:46:56;;;;;;;14.63;7.40;;;0.70;99.90;;;;;;5092181;28;20308;-59
2021/12/08 08:49:28;;;;;;;12.20;7.40;;;0.80;99.90;;;;;;5091950;28;20207;-59
2021/12/08 08:52:01;;;;;;;12.63;7.60;;;0.80;99.90;;;;;;5074894;28;20236;-60
2021/12/08 08:54:31;;;;;;;14.17;7.60;;;0.80;99.90;;;;;;5072094;28;20193;-58
2021/12/08 08:57:01;;;;;;;11.73;6.90;;;0.90;99.90;;;;;;5071699;28;20196;-57
2021/12/08 08:59:31;;;;;;;14.13;7.60;;;0.90;99.90;;;;;;5071566;28;20221;-59
2021/12/08 09:02:02;;;;;;;12.60;7.50;;;0.90;99.90;;;;;;5071859;28;20528;-59
2021/12/08 09:04:31;;;;;;;12.63;7.60;;;0.90;99.90;;;;;;5071888;28;20292;-59
2021/12/08 09:07:08;;;;;;;11.50;7.13;;;0.90;99.90;;;;;;5071670;28;20571;-59
2021/12/08 09:09:41;;;;;;;13.93;7.70;;;0.80;99.90;;;;;;5071536;28;20192;-58
2021/12/08 09:12:12;;;;;;;14.07;7.77;;;0.80;99.90;;;;;;5071446;28;20197;-56
2021/12/08 09:14:43;;;;;;;12.83;7.23;;;0.80;99.90;;;;;;5071712;28;20547;-59
2021/12/08 09:17:13;;;;;;;13.77;7.30;;;0.80;99.90;;;;;;5071156;28;20185;-59
2021/12/08 09:19:44;;;;;;;12.70;6.83;;;0.90;99.90;;;;;;5071613;28;20243;-57
2021/12/08 09:22:18;;;;;;;12.77;7.47;;;0.90;99.90;;;;;;5071497;28;20204;-56
2021/12/08 09:24:51;;;;;;;14.93;7.77;;;0.90;99.90;;;;;;5071425;28;20200;-58
2021/12/08 09:27:24;;;;;;;13.50;7.47;;;0.90;99.90;;;;;;5071560;28;20616;-59
2021/12/08 09:29:57;;;;;;;14.60;7.67;;;0.90;99.90;;;;;;5075074;28;20193;-57
2021/12/08 09:32:30;;;;;;;9.93;6.60;;;0.90;99.90;;;;;;5085136;28;20192;-58
2021/12/08 09:35:00;;;;;;;9.07;5.93;;;0.80;99.90;;;;;;5093129;28;20637;-58
2021/12/08 09:37:32;;;;;;;10.00;6.50;;;0.80;99.90;;;;;;5064089;28;20205;-59
2021/12/08 09:40:07;;;;;;;10.10;6.67;;;0.80;99.90;;;;;;5075554;28;20220;-59
2021/12/08 09:42:39;;;;;;;12.87;7.43;;;0.80;99.90;;;;;;5087192;28;20660;-59
2021/12/08 09:45:10;;;;;;;15.07;7.67;;;0.80;99.90;;;;;;5077345;28;20193;-58
2021/12/08 09:47:37;;;;;;;11.53;7.00;;;0.90;99.90;;;;;;5075180;28;20221;-59
2021/12/08 09:50:07;;;;;;;12.87;7.70;;;0.90;99.90;;;;;;5074851;28;20197;-56
2021/12/08 09:52:36;;;;;;;10.27;6.90;;;0.80;99.90;;;;;;5074432;28;20252;-59
2021/12/08 09:55:06;;;;;;;12.03;6.93;;;0.90;99.90;;;;;;5078131;28;20200;-59
2021/12/08 09:57:32;;;;;;;11.50;6.67;;;0.80;99.90;;;;;;5074888;28;20207;-57
2021/12/08 10:00:00;;;;;;;12.80;7.00;;;0.80;99.90;;;;;;5074729;28;20220;-60
2021/12/08 10:02:32;;;;;;;9.80;6.00;;;0.90;99.90;;;;;;5074764;28;20561;-59
2021/12/08 10:05:01;;;;;;;13.23;7.17;;;0.90;99.90;;;;;;5090722;28;20540;-58
2021/12/08 10:07:29;;;;;;;11.87;7.67;;;0.90;99.90;;;;;;5094768;28;20211;-60
2021/12/08 10:09:57;;;;;;;11.87;6.63;;;0.90;99.90;;;;;;5091794;28;20429;-59
2021/12/08 10:12:24;;;;;;;12.90;7.33;;;0.90;99.90;;;;;;5087076;28;20211;-58
2021/12/08 10:14:51;;;;;;;10.20;6.70;;;0.90;99.90;;;;;;5094616;28;20637;-59
2021/12/08 10:17:20;;;;;;;10.87;6.33;;;0.90;99.90;;;;;;5079572;28;20200;-59
2021/12/08 10:20:10;;;;;;;10.57;6.57;;;0.90;99.90;;;;;;5074437;28;20350;-59
2021/12/08 10:22:37;;;;;;;10.43;5.70;;;0.90;99.90;;;;;;5086896;28;20209;-58
2021/12/08 10:25:09;;;;;;;11.73;6.40;;;0.90;99.90;;;;;;5073849;28;20208;-58
2021/12/08 10:28:04;;;;;;;9.83;6.10;;;0.90;99.90;;;;;;5073669;28;20196;-57
2021/12/08 10:30:32;;;;;;;10.80;5.97;;;0.90;99.90;;;;;;5074083;28;20196;-58
2021/12/08 10:33:00;;;;;;;9.67;6.40;;;0.90;99.90;;;;;;5074079;28;20627;-58
2021/12/08 10:35:47;;;;;;;8.63;6.23;;;0.90;99.90;;;;;;5073931;28;20213;-57
2021/12/08 10:38:16;;;;;;;10.80;6.60;;;0.90;99.90;;;;;;5074293;28;20189;-56
2021/12/08 10:41:06;;;;;;;8.20;5.60;;;0.90;99.90;;;;;;5073520;28;20229;-56
2021/12/08 10:43:34;;;;;;;8.83;5.87;;;0.90;99.90;;;;;;5073581;28;20197;-58
2021/12/08 10:46:07;;;;;;;8.70;5.83;;;0.90;99.90;;;;;;5073887;28;20193;-56
2021/12/08 10:48:37;;;;;;;7.67;5.50;;;0.80;99.90;;;;;;5073927;28;20197;-58
2021/12/08 10:56:48;;;;;;;9.97;6.20;;;0.90;99.90;;;;;;5077916;28;20672;-58
2021/12/08 10:59:14;;;;;;;9.77;5.40;;;0.90;99.90;;;;;;5072805;28;20197;-57
2021/12/08 11:01:41;;;;;;;9.53;6.30;;;0.90;99.90;;;;;;5078965;28;20295;-60
2021/12/08 11:04:11;;;;;;;9.87;6.07;;;0.90;99.90;;;;;;5094006;28;20688;-59
2021/12/08 11:06:40;;;;;;;12.13;6.83;;;0.80;99.90;;;;;;5093903;28;20713;-57
2021/12/08 11:09:15;;;;;;;9.83;5.80;;;0.80;99.90;;;;;;5091510;28;20204;-58
2021/12/08 11:11:43;;;;;;;9.83;5.63;;;0.90;99.90;;;;;;5085655;28;20207;-58
2021/12/08 11:14:14;;;;;;;8.03;4.93;;;0.80;99.90;;;;;;5093259;28;20211;-59
2021/12/08 11:16:42;;;;;;;7.10;4.90;;;0.80;99.90;;;;;;5093233;28;20192;-58
2021/12/08 11:19:13;;;;;;;8.77;5.77;;;0.80;99.90;;;;;;5074612;28;20200;-59
2021/12/08 11:21:42;;;;;;;8.93;5.97;;;0.80;99.90;;;;;;5077009;28;20211;-60
2021/12/08 11:24:13;;;;;;;11.47;6.63;;;0.90;99.90;;;;;;5073130;28;20205;-57
2021/12/08 11:26:43;;;;;;;9.50;6.60;;;0.90;99.90;;;;;;5072941;28;20652;-60
2021/12/08 11:29:13;;;;;;;10.37;6.87;;;0.90;99.90;;;;;;5072583;28;20189;-60
2021/12/08 11:31:42;;;;;;;10.90;6.90;;;0.90;99.90;;;;;;5072426;28;20196;-59
2021/12/08 11:34:17;;;;;;;10.73;6.03;;;0.90;99.90;;;;;;5072648;28;20220;-58
2021/12/08 11:36:46;;;;;;;10.73;6.27;;;0.80;99.90;;;;;;5072636;28;20193;-58
2021/12/08 11:39:15;;;;;;;11.87;6.27;;;0.80;99.90;;;;;;5072690;28;20212;-58
2021/12/08 11:41:44;;;;;;;10.70;6.87;;;0.80;99.90;;;;;;5079110;28;20307;-59
2021/12/08 11:44:15;;;;;;;10.23;6.30;;;0.80;99.90;;;;;;5092600;28;20723;-59
2021/12/08 11:46:46;;;;;;;9.67;6.33;;;0.80;99.90;;;;;;5090969;28;20217;-59
2021/12/08 11:49:13;;;;;;;11.63;6.87;;;0.80;99.90;;;;;;5072938;28;20207;-57
2021/12/08 11:52:02;;;;;;;13.60;7.03;;;0.80;99.90;;;;;;5071178;28;20686;-59
2021/12/08 11:54:36;;;;;;;13.43;6.90;;;0.90;99.90;;;;;;5072431;28;20215;-56
2021/12/08 11:57:10;;;;;;;10.97;6.80;;;0.90;99.90;;;;;;5072081;28;20192;-56
2021/12/08 11:59:48;;;;;;;12.60;7.57;;;0.80;99.90;;;;;;5071872;28;20208;-59
2021/12/08 12:02:15;;;;;;;13.57;7.90;;;0.80;99.90;;;;;;5072491;28;20542;-60
2021/12/08 12:04:43;;;;;;;12.23;7.40;;;0.80;99.90;;;;;;5075451;28;20201;-61
2021/12/08 12:07:10;;;;;;;13.07;7.07;;;0.80;99.90;;;;;;5072327;28;20737;-60
2021/12/08 12:09:38;;;;;;;12.60;7.37;;;0.80;99.90;;;;;;5071893;28;20726;-59
2021/12/08 12:12:05;;;;;;;13.80;7.57;;;0.80;99.90;;;;;;5075368;28;20196;-58
2021/12/08 12:14:32;;;;;;;14.40;7.73;;;0.80;99.90;;;;;;5092325;28;20354;-57
2021/12/08 12:17:01;;;;;;;13.93;7.63;;;0.80;99.90;;;;;;5092374;28;20200;-59
2021/12/08 12:19:32;;;;;;;13.30;8.17;;;0.70;99.90;;;;;;5092194;28;20214;-58
2021/12/08 12:22:08;;;;;;;13.30;7.37;;;0.70;99.90;;;;;;5092706;28;20212;-60
2021/12/08 12:24:57;;;;;;;16.67;7.83;;;0.70;99.90;;;;;;5072332;28;20978;-60
2021/12/08 12:27:38;;;;;;;15.77;7.77;;;0.70;99.90;;;;;;5071343;28;20228;-57
2021/12/08 12:30:12;;;;;;;14.50;8.27;;;0.70;99.90;;;;;;5071944;28;20193;-59
2021/12/08 12:32:46;;;;;;;15.70;8.53;;;0.80;99.90;;;;;;5061659;28;20193;-65
2021/12/08 12:35:17;;;;;;;17.00;8.53;;;0.80;99.90;;;;;;5071502;28;20238;-64
2021/12/08 12:37:45;;;;;;;17.97;9.07;;;0.70;99.90;;;;;;5071708;28;20284;-64
2021/12/08 12:40:15;;;;;;;16.93;8.57;;;0.70;99.90;;;;;;5072005;28;20584;-64
2021/12/08 12:42:49;;;;;;;16.97;9.40;;;0.70;99.90;;;;;;5071080;28;20213;-64
2021/12/08 12:45:16;;;;;;;14.43;8.57;;;0.70;99.90;;;;;;5078123;28;20196;-65
2021/12/08 12:48:13;;;;;;;19.87;10.00;;;0.70;99.90;;;;;;5091836;28;20218;-65
2021/12/08 12:50:55;;;;;;;20.03;9.77;;;0.70;99.90;;;;;;5074215;28;20232;-65
2021/12/08 12:53:38;;;;;;;16.77;9.03;;;0.70;99.90;;;;;;5061319;28;20326;-64
2021/12/08 12:56:08;;;;;;;18.53;8.87;;;0.70;99.90;;;;;;5071817;28;20620;-64
2021/12/08 12:58:47;;;;;;;17.77;9.10;;;0.60;99.90;;;;;;5072040;28;20575;-65
2021/12/08 13:01:16;;;;;;;20.53;9.93;;;0.60;99.90;;;;;;5074367;28;20216;-64
2021/12/08 13:03:50;;;;;;;19.83;8.70;;;0.70;99.90;;;;;;5071563;28;20212;-65
2021/12/08 13:06:37;;;;;;;21.43;9.80;;;0.70;99.90;;;;;;5071576;28;20288;-65
2021/12/08 13:09:05;;;;;;;23.00;10.73;;;0.70;99.90;;;;;;5070509;28;20201;-66
2021/12/08 13:11:44;;;;;;;21.03;10.50;;;0.70;99.90;;;;;;5070154;28;20199;-67
2021/12/08 13:14:24;;;;;;;24.30;11.40;;;0.70;99.90;;;;;;5061102;28;20200;-65
2021/12/08 13:17:10;;;;;;;22.93;12.03;;;0.70;99.90;;;;;;5071421;28;20228;-68
2021/12/08 13:19:41;;;;;;;18.17;10.77;;;0.70;99.90;;;;;;5071445;28;20193;-65
2021/12/08 13:22:08;;;;;;;20.90;10.73;;;0.70;99.90;;;;;;5071400;28;20228;-68
2021/12/08 13:24:40;;;;;;;26.43;11.73;;;0.70;99.90;;;;;;5071097;28;20209;-65
2021/12/08 13:27:09;;;;;;;24.20;11.27;;;0.70;99.90;;;;;;5071649;28;20235;-66
2021/12/08 13:29:40;;;;;;;25.10;11.37;;;0.70;99.90;;;;;;5071661;28;20246;-68